createdAt,value
2023-04-05T00:00:46.681Z,1.13
2023-04-05T00:03:14.270Z,0.91
2023-04-05T00:05:41.725Z,0.96
2023-04-05T00:08:13.590Z,0.74
2023-04-05T00:10:41.270Z,0.59
2023-04-05T00:13:08.955Z,0.69
2023-04-05T00:15:36.361Z,0.68
2023-04-05T00:18:04.001Z,0.71
2023-04-05T00:20:31.484Z,0.87
2023-04-05T00:22:59.105Z,0.69
2023-04-05T00:25:26.467Z,0.68
2023-04-05T00:27:53.823Z,0.66
2023-04-05T00:30:21.407Z,0.44
2023-04-05T00:32:50.198Z,0.75
2023-04-05T00:35:18.054Z,0.72
2023-04-05T00:37:45.439Z,0.63
2023-04-05T00:40:12.915Z,0.41
2023-04-05T00:42:40.418Z,0.56
2023-04-05T00:45:08.176Z,0.57
2023-04-05T00:47:35.940Z,0.61
2023-04-05T00:50:03.748Z,0.60
2023-04-05T00:52:32.241Z,0.41
2023-04-05T00:54:59.693Z,0.36
2023-04-05T00:57:38.788Z,0.35
2023-04-05T01:00:09.558Z,0.19
2023-04-05T01:02:52.113Z,0.12
2023-04-05T01:05:27.702Z,0.09
2023-04-05T01:08:08.343Z,0.06
2023-04-05T01:10:44.684Z,-0.09
2023-04-05T01:13:12.119Z,-0.01
2023-04-05T01:15:39.495Z,0.17
2023-04-05T01:18:10.239Z,-0.08
2023-04-05T01:20:44.833Z,0.02
2023-04-05T01:23:39.072Z,0.20
2023-04-05T01:26:30.526Z,-0.32
2023-04-05T01:29:24.282Z,-0.15
2023-04-05T01:32:07.843Z,0.06
2023-04-05T01:34:54.980Z,0.17
2023-04-05T01:37:27.973Z,-0.02
2023-04-05T01:39:56.210Z,-0.12
2023-04-05T01:42:26.160Z,-0.05
2023-04-05T01:44:55.352Z,-0.07
2023-04-05T01:47:22.878Z,0.10
2023-04-05T01:49:50.426Z,0.02
2023-04-05T01:52:17.882Z,0.05
2023-04-05T01:54:45.405Z,-0.08
2023-04-05T01:57:12.772Z,-0.13
2023-04-05T01:59:39.686Z,-0.16
2023-04-05T02:02:07.071Z,-0.13
2023-04-05T02:04:34.572Z,-0.12
2023-04-05T02:07:03.000Z,-0.48
2023-04-05T02:09:30.606Z,-0.71
2023-04-05T02:11:57.933Z,-0.74
2023-04-05T02:14:25.962Z,-0.63
2023-04-05T02:16:56.676Z,-0.65
2023-04-05T02:19:24.092Z,-0.65
2023-04-05T02:21:53.710Z,-0.61
2023-04-05T02:24:21.839Z,-0.62
2023-04-05T02:26:48.855Z,-0.60
2023-04-05T02:29:16.220Z,-0.57
2023-04-05T02:31:43.426Z,-0.51
2023-04-05T02:34:11.696Z,-0.41
2023-04-05T02:36:39.019Z,-0.41
2023-04-05T02:39:06.307Z,-0.45
2023-04-05T02:41:33.728Z,-0.34
2023-04-05T02:44:01.245Z,-0.37
2023-04-05T02:46:28.543Z,-0.37
2023-04-05T02:48:55.548Z,-0.40
2023-04-05T02:51:22.991Z,-0.37
2023-04-05T02:53:50.295Z,-0.30
2023-04-05T02:56:17.376Z,-0.28
2023-04-05T02:58:44.842Z,-0.24
2023-04-05T03:01:12.827Z,-0.32
2023-04-05T03:03:40.857Z,-0.39
2023-04-05T03:06:11.025Z,-0.37
2023-04-05T03:08:44.033Z,-0.44
2023-04-05T03:11:11.587Z,-0.32
2023-04-05T03:13:38.989Z,-0.31
2023-04-05T03:16:06.713Z,-0.32
2023-04-05T03:18:34.161Z,-0.32
2023-04-05T03:21:01.580Z,-0.44
2023-04-05T03:23:31.039Z,-0.28
2023-04-05T03:25:58.020Z,-0.25
2023-04-05T03:28:25.896Z,-0.32
2023-04-05T03:30:53.600Z,-0.32
2023-04-05T03:33:21.002Z,-0.34
2023-04-05T03:35:48.646Z,-0.30
2023-04-05T03:38:16.397Z,-0.26
2023-04-05T03:40:43.873Z,-0.25
2023-04-05T03:43:11.446Z,-0.35
2023-04-05T03:45:39.028Z,-0.34
2023-04-05T03:48:06.898Z,-0.35
2023-04-05T03:50:34.281Z,-0.34
2023-04-05T03:53:01.688Z,-0.39
2023-04-05T03:55:29.098Z,-0.29
2023-04-05T03:57:56.139Z,-0.39
2023-04-05T04:00:24.651Z,-0.34
2023-04-05T04:02:52.864Z,-0.24
2023-04-05T04:05:21.399Z,-0.28
2023-04-05T04:07:48.894Z,-0.33
2023-04-05T04:10:17.891Z,-0.30
2023-04-05T04:12:45.990Z,-0.40
2023-04-05T04:15:13.334Z,-0.37
2023-04-05T04:17:41.139Z,-0.39
2023-04-05T04:20:11.966Z,-0.48
2023-04-05T04:22:40.706Z,-0.45
2023-04-05T04:25:12.797Z,-0.47
2023-04-05T04:27:43.671Z,-0.46
2023-04-05T04:30:13.347Z,-0.47
2023-04-05T04:32:52.122Z,-0.45
2023-04-05T04:35:29.197Z,-0.46
2023-04-05T04:38:07.386Z,-0.45
2023-04-05T04:40:39.341Z,-0.46
2023-04-05T04:43:14.305Z,-0.54
2023-04-05T04:45:42.056Z,-0.56
2023-04-05T04:48:09.992Z,-0.69
2023-04-05T04:50:37.795Z,-0.74
2023-04-05T04:53:04.824Z,-0.87
2023-04-05T04:55:33.541Z,-0.85
2023-04-05T04:58:00.986Z,-0.83
2023-04-05T05:00:28.368Z,-0.83
2023-04-05T05:02:56.248Z,-0.78
2023-04-05T05:05:23.753Z,-0.75
2023-04-05T05:07:52.847Z,-0.70
2023-04-05T05:10:20.668Z,-0.63
2023-04-05T05:12:51.850Z,-0.59
2023-04-05T05:15:19.665Z,-0.61
2023-04-05T05:17:47.433Z,-0.56
2023-04-05T05:20:14.840Z,-0.54
2023-04-05T05:22:42.556Z,-0.61
2023-04-05T05:25:10.045Z,-0.63
2023-04-05T05:27:37.384Z,-0.62
2023-04-05T05:30:05.844Z,-0.59
2023-04-05T05:32:33.288Z,-0.63
2023-04-05T05:35:00.859Z,-0.42
2023-04-05T05:37:34.785Z,-0.44
2023-04-05T05:40:02.266Z,-0.41
2023-04-05T05:42:29.789Z,-0.38
2023-04-05T05:44:57.117Z,-0.41
2023-04-05T05:47:24.505Z,-0.30
2023-04-05T05:49:51.985Z,-0.25
2023-04-05T05:52:19.332Z,-0.20
2023-04-05T05:54:47.392Z,-0.17
2023-04-05T05:57:14.749Z,-0.11
2023-04-05T05:59:42.221Z,-0.15
2023-04-05T06:02:10.629Z,-0.02
2023-04-05T06:04:38.106Z,-0.04
2023-04-05T06:07:05.240Z,0.08
2023-04-05T06:09:35.381Z,0.07
2023-04-05T06:12:03.078Z,0.11
2023-04-05T06:14:30.533Z,0.22
2023-04-05T06:16:58.206Z,0.22
2023-04-05T06:19:25.544Z,0.40
2023-04-05T06:21:53.009Z,0.46
2023-04-05T06:24:21.041Z,0.34
2023-04-05T06:26:48.368Z,0.57
2023-04-05T06:29:16.061Z,0.79
2023-04-05T06:31:43.803Z,0.90
2023-04-05T06:34:11.426Z,0.94
2023-04-05T06:36:38.749Z,0.93
2023-04-05T06:39:06.151Z,1.05
2023-04-05T06:41:33.246Z,0.99
2023-04-05T06:44:04.676Z,1.11
2023-04-05T06:46:32.421Z,1.21
2023-04-05T06:49:03.012Z,1.19
2023-04-05T06:51:32.237Z,1.12
2023-04-05T06:53:59.711Z,1.34
2023-04-05T06:56:27.304Z,1.52
2023-04-05T06:58:55.766Z,1.61
2023-04-05T07:01:24.906Z,1.62
2023-04-05T07:03:53.414Z,1.82
2023-04-05T07:06:21.678Z,1.88
2023-04-05T07:08:53.645Z,1.95
2023-04-05T07:11:21.586Z,2.00
2023-04-05T07:13:48.899Z,2.11
2023-04-05T07:16:18.183Z,2.35
2023-04-05T07:18:45.769Z,2.30
2023-04-05T07:21:12.750Z,2.31
2023-04-05T07:23:40.154Z,2.31
2023-04-05T07:26:08.539Z,2.39
2023-04-05T07:28:36.523Z,2.52
2023-04-05T07:31:07.556Z,2.47
2023-04-05T07:33:35.023Z,2.63
2023-04-05T07:36:03.578Z,2.71
2023-04-05T07:38:31.036Z,2.76
2023-04-05T07:40:58.864Z,2.85
2023-04-05T07:43:26.468Z,2.84
2023-04-05T07:46:01.152Z,2.96
2023-04-05T07:48:28.577Z,3.02
2023-04-05T07:50:55.877Z,3.02
2023-04-05T07:53:23.359Z,3.14
2023-04-05T07:55:51.015Z,3.23
2023-04-05T07:58:18.335Z,3.40
2023-04-05T08:00:45.624Z,3.71
2023-04-05T08:03:13.083Z,3.67
2023-04-05T08:05:40.889Z,3.74
2023-04-05T08:08:11.138Z,3.76
2023-04-05T08:10:41.373Z,3.90
2023-04-05T08:13:08.870Z,4.20
2023-04-05T08:15:36.583Z,4.14
2023-04-05T08:18:04.157Z,4.38
2023-04-05T08:20:31.645Z,4.52
2023-04-05T08:22:58.999Z,4.49
2023-04-05T08:25:26.401Z,4.55
2023-04-05T08:27:54.049Z,4.92
2023-04-05T08:30:22.028Z,5.05
2023-04-05T08:32:49.513Z,5.04
2023-04-05T08:35:16.955Z,4.86
2023-04-05T08:37:44.487Z,5.10
2023-04-05T08:40:12.879Z,5.23
2023-04-05T08:43:04.555Z,5.32
2023-04-05T08:45:34.358Z,5.41
2023-04-05T08:48:01.898Z,5.49
2023-04-05T08:50:29.398Z,5.81
2023-04-05T08:52:56.816Z,5.79
2023-04-05T08:55:24.840Z,6.02
2023-04-05T08:57:59.150Z,6.25
2023-04-05T09:00:27.522Z,6.69
2023-04-05T09:02:58.694Z,6.58
2023-04-05T09:05:26.999Z,6.59
2023-04-05T09:07:55.526Z,6.59
2023-04-05T09:10:23.646Z,6.49
2023-04-05T09:12:53.217Z,6.82
2023-04-05T09:15:24.335Z,7.03
2023-04-05T09:17:51.942Z,7.01
2023-04-05T09:20:19.716Z,7.05
2023-04-05T09:22:47.490Z,7.18
2023-04-05T09:25:42.607Z,6.66
2023-04-05T09:28:10.355Z,7.12
2023-04-05T09:30:38.162Z,7.60
2023-04-05T09:33:10.512Z,7.34
2023-04-05T09:35:38.403Z,7.36
2023-04-05T09:38:06.143Z,8.15
2023-04-05T09:40:47.662Z,7.86
2023-04-05T09:43:42.105Z,7.83
2023-04-05T09:46:33.969Z,7.84
2023-04-05T09:49:03.865Z,8.51
2023-04-05T09:51:38.436Z,8.40
2023-04-05T09:54:10.784Z,8.13
2023-04-05T09:56:40.892Z,8.36
2023-04-05T09:59:12.478Z,8.07
2023-04-05T10:01:44.461Z,8.13
2023-04-05T10:04:11.896Z,8.82
2023-04-05T10:06:43.161Z,8.82
2023-04-05T10:09:12.117Z,9.23
2023-04-05T10:11:39.910Z,8.57
2023-04-05T10:14:08.792Z,8.59
2023-04-05T10:17:16.645Z,8.73
2023-04-05T10:20:17.146Z,8.81
2023-04-05T10:23:10.206Z,9.60
2023-04-05T10:25:53.184Z,9.13
2023-04-05T10:28:34.703Z,9.58
2023-04-05T10:31:46.343Z,9.62
2023-04-05T10:34:42.756Z,9.03
2023-04-05T10:37:23.662Z,9.09
2023-04-05T10:39:51.329Z,9.43
2023-04-05T10:42:36.538Z,9.56
2023-04-05T10:45:10.069Z,10.04
2023-04-05T10:47:43.529Z,10.31
2023-04-05T10:50:18.391Z,9.74
2023-04-05T10:52:47.354Z,10.15
2023-04-05T10:55:16.144Z,10.31
2023-04-05T10:57:45.668Z,10.86
2023-04-05T11:00:15.872Z,10.76
2023-04-05T11:02:43.617Z,10.61
2023-04-05T11:05:32.674Z,9.57
2023-04-05T11:08:12.692Z,10.50
2023-04-05T11:10:40.222Z,9.98
2023-04-05T11:13:09.189Z,10.60
2023-04-05T11:15:36.955Z,10.52
2023-04-05T11:18:22.772Z,10.16
2023-04-05T11:21:07.688Z,10.27
2023-04-05T11:24:07.281Z,10.75
2023-04-05T11:26:56.723Z,10.75
2023-04-05T11:29:50.775Z,10.88
2023-04-05T11:32:18.350Z,10.53
2023-04-05T11:34:45.669Z,11.15
2023-04-05T11:37:15.808Z,10.45
2023-04-05T11:39:42.758Z,11.47
2023-04-05T11:42:13.174Z,12.01
2023-04-05T11:44:49.607Z,10.93
2023-04-05T11:47:23.436Z,11.09
2023-04-05T11:49:52.107Z,12.06
2023-04-05T11:52:21.524Z,11.48
2023-04-05T11:54:49.393Z,11.94
2023-04-05T11:57:22.912Z,12.13
2023-04-05T11:59:52.474Z,11.31
2023-04-05T12:02:20.502Z,12.29
2023-04-05T12:04:57.082Z,13.01
2023-04-05T12:07:36.966Z,11.55
2023-04-05T12:10:19.587Z,11.07
2023-04-05T12:12:48.884Z,11.32
2023-04-05T12:15:19.032Z,11.99
2023-04-05T12:17:51.847Z,11.24
2023-04-05T12:20:24.670Z,11.54
2023-04-05T12:22:57.302Z,12.01
2023-04-05T12:25:24.973Z,12.47
2023-04-05T12:27:53.346Z,12.29
2023-04-05T12:30:23.359Z,12.64
2023-04-05T12:32:55.384Z,13.28
2023-04-05T12:35:27.135Z,12.83
2023-04-05T12:37:54.636Z,12.27
2023-04-05T12:40:23.521Z,12.24
2023-04-05T12:42:51.214Z,11.95
2023-04-05T12:45:18.893Z,12.15
2023-04-05T12:50:30.798Z,13.13
2023-04-05T12:53:02.078Z,12.78
2023-04-05T12:55:30.608Z,12.76
2023-04-05T12:58:02.448Z,12.02
2023-04-05T13:00:31.066Z,12.65
2023-04-05T13:02:59.818Z,13.55
2023-04-05T13:05:30.920Z,13.92
2023-04-05T13:07:58.979Z,13.78
2023-04-05T13:10:26.468Z,12.95
2023-04-05T13:12:53.498Z,12.77
2023-04-05T13:15:20.920Z,12.67
2023-04-05T13:17:50.306Z,13.13
2023-04-05T13:20:18.414Z,13.08
2023-04-05T13:22:46.588Z,12.97
2023-04-05T13:25:16.150Z,14.30
2023-04-05T13:27:43.396Z,13.58
2023-04-05T13:30:11.000Z,14.32
2023-04-05T13:32:38.059Z,14.46
2023-04-05T13:35:06.009Z,14.53
2023-04-05T13:37:33.167Z,14.26
2023-04-05T13:40:03.449Z,13.80
2023-04-05T13:42:31.124Z,14.09
2023-04-05T13:44:58.461Z,13.87
2023-04-05T13:47:25.566Z,14.76
2023-04-05T13:49:52.528Z,14.17
2023-04-05T13:52:19.451Z,14.00
2023-04-05T13:54:46.503Z,12.91
2023-04-05T13:57:14.637Z,13.95
2023-04-05T13:59:41.794Z,15.04
2023-04-05T14:02:09.194Z,14.19
2023-04-05T14:04:36.598Z,13.58
2023-04-05T14:07:04.260Z,13.06
2023-04-05T14:09:32.638Z,14.60
2023-04-05T14:12:02.555Z,14.52
2023-04-05T14:14:30.171Z,14.21
2023-04-05T14:16:57.602Z,14.77
2023-04-05T14:19:25.063Z,14.53
2023-04-05T14:21:52.633Z,14.53
2023-04-05T14:24:20.075Z,14.37
2023-04-05T14:26:49.841Z,14.44
2023-04-05T14:29:19.140Z,14.34
2023-04-05T14:31:46.744Z,13.81
2023-04-05T14:34:14.271Z,13.72
2023-04-05T14:36:41.917Z,14.48
2023-04-05T14:39:09.020Z,14.39
2023-04-05T14:41:36.580Z,15.42
2023-04-05T14:44:03.974Z,15.31
2023-04-05T14:46:31.372Z,14.72
2023-04-05T14:48:58.824Z,14.12
2023-04-05T14:51:26.912Z,14.38
2023-04-05T14:53:54.264Z,13.99
2023-04-05T14:56:21.882Z,14.47
2023-04-05T14:58:49.323Z,15.24
2023-04-05T15:01:16.614Z,15.25
2023-04-05T15:03:44.229Z,14.97
2023-04-05T15:06:11.424Z,14.47
2023-04-05T15:08:38.804Z,15.39
2023-04-05T15:11:06.264Z,14.98
2023-04-05T15:13:33.984Z,14.50
2023-04-05T15:16:01.493Z,14.94
2023-04-05T15:18:28.567Z,14.19
2023-04-05T15:20:55.914Z,14.43
2023-04-05T15:23:23.132Z,14.70
2023-04-05T15:25:50.752Z,14.01
2023-04-05T15:28:18.137Z,14.19
2023-04-05T15:30:45.969Z,14.44
2023-04-05T15:33:13.484Z,14.20
2023-04-05T15:35:41.490Z,15.02
2023-04-05T15:38:08.536Z,14.60
2023-04-05T15:40:36.448Z,14.51
2023-04-05T15:43:03.842Z,13.53
2023-04-05T15:45:31.810Z,14.22
2023-04-05T15:47:59.296Z,14.25
2023-04-05T15:50:27.159Z,14.63
2023-04-05T15:52:54.617Z,14.83
2023-04-05T15:55:21.729Z,14.10
2023-04-05T15:57:53.722Z,13.73
2023-04-05T16:00:22.585Z,13.95
2023-04-05T16:02:52.893Z,14.10
2023-04-05T16:05:22.268Z,14.44
2023-04-05T16:07:49.317Z,14.24
2023-04-05T16:10:19.912Z,14.43
2023-04-05T16:12:47.456Z,13.89
2023-04-05T16:15:14.862Z,14.09
2023-04-05T16:17:42.411Z,13.80
2023-04-05T16:20:10.712Z,13.57
2023-04-05T16:22:38.276Z,13.84
2023-04-05T16:25:06.280Z,14.20
2023-04-05T16:30:10.447Z,13.64
2023-04-05T16:32:38.554Z,14.22
2023-04-05T16:35:06.480Z,13.77
2023-04-05T16:37:34.088Z,13.86
2023-04-05T16:40:02.947Z,13.59
2023-04-05T16:42:30.684Z,13.45
2023-04-05T16:44:58.348Z,13.27
2023-04-05T16:47:28.782Z,13.34
2023-04-05T16:49:56.630Z,12.98
2023-04-05T16:52:24.359Z,13.10
2023-04-05T16:54:52.840Z,13.18
2023-04-05T16:57:20.530Z,13.16
2023-04-05T16:59:48.003Z,13.10
2023-04-05T17:02:16.220Z,12.94
2023-04-05T17:04:44.294Z,13.22
2023-04-05T17:07:12.336Z,13.25
2023-04-05T17:09:40.092Z,12.92
2023-04-05T17:12:10.796Z,12.58
2023-04-05T17:14:40.160Z,13.38
2023-04-05T17:17:13.820Z,13.04
2023-04-05T17:19:44.089Z,12.67
2023-04-05T17:22:14.012Z,12.69
2023-04-05T17:24:41.621Z,12.08
2023-04-05T17:27:10.711Z,12.32
2023-04-05T17:29:38.499Z,12.40
2023-04-05T17:32:06.694Z,11.92
2023-04-05T17:34:37.211Z,12.01
2023-04-05T17:37:04.633Z,11.84
2023-04-05T17:39:32.098Z,11.49
2023-04-05T17:41:59.165Z,11.58
2023-04-05T17:44:26.340Z,11.52
2023-04-05T17:47:01.624Z,11.12
2023-04-05T17:49:37.617Z,10.76
2023-04-05T17:52:08.719Z,10.39
2023-04-05T17:54:39.416Z,10.29
2023-04-05T17:57:12.871Z,10.40
2023-04-05T17:59:43.344Z,10.06
2023-04-05T18:02:11.304Z,9.91
2023-04-05T18:04:40.369Z,10.15
2023-04-05T18:07:08.920Z,9.79
2023-04-05T18:09:38.555Z,9.84
2023-04-05T18:12:06.399Z,9.74
2023-04-05T18:14:36.343Z,9.26
2023-04-05T18:17:09.787Z,9.40
2023-04-05T18:19:39.743Z,8.99
2023-04-05T18:22:07.388Z,8.78
2023-04-05T18:24:34.989Z,8.91
2023-04-05T18:27:02.671Z,8.80
2023-04-05T18:29:30.915Z,8.75
2023-04-05T18:31:58.390Z,8.56
2023-04-05T18:34:26.254Z,8.03
2023-04-05T18:36:53.665Z,7.87
2023-04-05T18:39:21.162Z,7.84
2023-04-05T18:41:48.563Z,7.61
2023-04-05T18:44:16.499Z,7.63
2023-04-05T18:46:45.123Z,7.57
2023-04-05T18:49:15.781Z,7.43
2023-04-05T18:51:43.363Z,6.88
2023-04-05T18:54:11.053Z,6.62
2023-04-05T18:56:38.468Z,6.47
2023-04-05T18:59:06.171Z,6.32
2023-04-05T19:01:33.794Z,6.32
2023-04-05T19:04:01.371Z,6.34
2023-04-05T19:06:30.036Z,5.99
2023-04-05T19:08:57.475Z,5.81
2023-04-05T19:11:25.062Z,5.96
2023-04-05T19:13:53.982Z,5.91
2023-04-05T19:16:21.609Z,5.82
2023-04-05T19:18:49.043Z,5.78
2023-04-05T19:21:17.158Z,5.76
2023-04-05T19:23:44.578Z,5.62
2023-04-05T19:26:12.396Z,5.33
2023-04-05T19:28:39.878Z,5.31
2023-04-05T19:31:08.094Z,5.07
2023-04-05T19:33:35.696Z,4.87
2023-04-05T19:36:03.145Z,5.15
2023-04-05T19:38:36.516Z,5.39
2023-04-05T19:41:04.006Z,5.56
2023-04-05T19:43:31.847Z,5.34
2023-04-05T19:46:00.931Z,4.83
2023-04-05T19:48:42.627Z,5.08
2023-04-05T19:51:15.108Z,5.30
2023-04-05T19:53:48.555Z,5.38
2023-04-05T19:56:30.014Z,5.15
2023-04-05T19:59:01.394Z,4.49
2023-04-05T20:01:37.939Z,4.47
2023-04-05T20:04:18.873Z,4.38
2023-04-05T20:06:57.004Z,4.56
2023-04-05T20:09:26.992Z,4.34
2023-04-05T20:12:03.608Z,4.44
2023-04-05T20:14:46.461Z,4.15
2023-04-05T20:17:15.957Z,4.22
2023-04-05T20:19:57.357Z,4.29
2023-04-05T20:22:26.143Z,4.21
2023-04-05T20:24:53.507Z,4.28
2023-04-05T20:27:21.023Z,4.24
2023-04-05T20:29:48.494Z,3.74
2023-04-05T20:32:17.781Z,3.74
2023-04-05T20:34:46.151Z,3.65
2023-04-05T20:37:13.621Z,3.17
2023-04-05T20:39:41.156Z,3.41
2023-04-05T20:42:09.954Z,3.41
2023-04-05T20:44:37.307Z,3.45
2023-04-05T20:47:04.529Z,3.47
2023-04-05T20:49:31.948Z,3.33
2023-04-05T20:51:59.801Z,3.24
2023-04-05T20:54:27.384Z,3.18
2023-04-05T20:56:54.821Z,3.13
2023-04-05T20:59:22.463Z,2.97
2023-04-05T21:01:50.105Z,3.26
2023-04-05T21:04:17.186Z,3.26
2023-04-05T21:06:44.572Z,3.34
2023-04-05T21:09:12.086Z,3.00
2023-04-05T21:11:39.583Z,3.06
2023-04-05T21:14:07.024Z,3.27
2023-04-05T21:16:34.559Z,3.31
2023-04-05T21:19:02.056Z,3.30
2023-04-05T21:21:29.454Z,3.12
2023-04-05T21:23:56.842Z,2.81
2023-04-05T21:26:23.915Z,3.09
2023-04-05T21:28:51.349Z,3.14
2023-04-05T21:31:18.826Z,2.91
2023-04-05T21:33:46.236Z,2.71
2023-04-05T21:36:14.210Z,2.61
2023-04-05T21:38:41.641Z,2.74
2023-04-05T21:41:08.737Z,2.89
2023-04-05T21:43:36.362Z,2.99
2023-04-05T21:46:03.791Z,2.63
2023-04-05T21:48:31.196Z,2.40
2023-04-05T21:50:58.657Z,2.26
2023-04-05T21:53:26.123Z,2.17
2023-04-05T21:55:53.559Z,2.43
2023-04-05T21:58:21.094Z,2.39
2023-04-05T22:00:48.504Z,2.52
2023-04-05T22:03:16.105Z,2.48
2023-04-05T22:05:43.527Z,2.38
2023-04-05T22:08:11.300Z,2.36
2023-04-05T22:10:38.859Z,1.97
2023-04-05T22:13:06.335Z,1.78
2023-04-05T22:15:33.719Z,1.80
2023-04-05T22:18:01.965Z,1.69
2023-04-05T22:20:29.434Z,1.64
2023-04-05T22:22:57.006Z,1.41
2023-04-05T22:25:26.357Z,1.54
2023-04-05T22:27:59.744Z,1.69
2023-04-05T22:30:37.228Z,1.50
2023-04-05T22:33:12.902Z,1.46
2023-04-05T22:35:41.125Z,1.56
2023-04-05T22:38:08.572Z,1.60
2023-04-05T22:40:36.146Z,1.50
2023-04-05T22:43:03.575Z,1.34
2023-04-05T22:45:31.175Z,1.43
2023-04-05T22:47:58.672Z,1.60
2023-04-05T22:50:26.223Z,1.53
2023-04-05T22:52:53.740Z,1.46
2023-04-05T22:55:21.320Z,1.14
2023-04-05T22:57:49.663Z,1.31
2023-04-05T23:00:18.356Z,1.44
2023-04-05T23:02:45.677Z,1.16
2023-04-05T23:05:13.335Z,1.29
2023-04-05T23:07:41.064Z,1.44
2023-04-05T23:10:09.108Z,1.56
2023-04-05T23:12:36.898Z,0.99
2023-04-05T23:15:04.854Z,1.12
2023-04-05T23:17:32.494Z,1.32
2023-04-05T23:19:59.815Z,1.39
2023-04-05T23:22:27.618Z,1.49
2023-04-05T23:24:54.998Z,1.42
2023-04-05T23:27:23.016Z,0.86
2023-04-05T23:29:50.242Z,0.80
2023-04-05T23:32:18.030Z,0.88
2023-04-05T23:34:45.367Z,0.84
2023-04-05T23:37:13.086Z,0.94
2023-04-05T23:39:40.853Z,1.00
2023-04-05T23:42:08.932Z,0.41
2023-04-05T23:44:37.705Z,0.27
2023-04-05T23:47:07.914Z,0.46
2023-04-05T23:49:35.702Z,0.21
2023-04-05T23:52:03.467Z,0.51
2023-04-05T23:54:30.725Z,0.35
2023-04-05T23:56:58.078Z,0.17
2023-04-05T23:59:25.986Z,0.05
